createdAt,value
2022-08-03T00:02:18.459Z,22.81
2022-08-03T00:04:46.650Z,22.71
2022-08-03T00:07:14.502Z,22.53
2022-08-03T00:09:43.787Z,22.35
2022-08-03T00:12:11.674Z,22.43
2022-08-03T00:14:39.578Z,22.42
2022-08-03T00:17:07.430Z,22.28
2022-08-03T00:19:35.270Z,22.37
2022-08-03T00:22:03.067Z,22.27
2022-08-03T00:24:31.249Z,22.34
2022-08-03T00:27:00.446Z,22.47
2022-08-03T00:29:28.316Z,22.36
2022-08-03T00:31:59.434Z,22.38
2022-08-03T00:34:58.631Z,22.45
2022-08-03T00:37:41.007Z,22.38
2022-08-03T00:40:13.893Z,22.27
2022-08-03T00:42:51.626Z,22.12
2022-08-03T00:45:19.617Z,22.16
2022-08-03T00:47:47.840Z,22.37
2022-08-03T00:50:16.053Z,22.26
2022-08-03T00:52:44.037Z,22.27
2022-08-03T00:55:12.726Z,22.31
2022-08-03T00:57:40.885Z,22.26
2022-08-03T01:00:12.917Z,22.32
2022-08-03T01:02:41.922Z,22.37
2022-08-03T01:05:10.693Z,22.31
2022-08-03T01:07:52.739Z,22.27
2022-08-03T01:10:28.104Z,22.26
2022-08-03T01:13:03.254Z,22.21
2022-08-03T01:15:37.468Z,22.34
2022-08-03T01:18:11.385Z,22.42
2022-08-03T01:20:42.167Z,22.36
2022-08-03T01:23:38.617Z,22.33
2022-08-03T01:26:12.762Z,22.36
2022-08-03T01:29:03.107Z,22.50
2022-08-03T01:31:34.918Z,22.28
2022-08-03T01:34:24.521Z,22.30
2022-08-03T01:36:54.374Z,22.46
2022-08-03T01:39:22.823Z,22.31
2022-08-03T01:41:52.761Z,22.23
2022-08-03T01:44:29.665Z,22.26
2022-08-03T01:47:00.712Z,22.16
2022-08-03T01:49:30.124Z,22.32
2022-08-03T01:52:04.867Z,22.40
2022-08-03T01:54:34.405Z,22.44
2022-08-03T01:57:03.632Z,22.36
2022-08-03T01:59:31.961Z,22.37
2022-08-03T02:02:16.116Z,22.49
2022-08-03T02:04:50.257Z,22.46
2022-08-03T02:07:18.374Z,22.52
2022-08-03T02:09:48.357Z,22.34
2022-08-03T02:12:17.508Z,22.48
2022-08-03T02:14:46.937Z,22.43
2022-08-03T02:17:16.508Z,22.30
2022-08-03T02:19:44.747Z,22.19
2022-08-03T02:22:14.594Z,22.23
2022-08-03T02:24:42.754Z,22.20
2022-08-03T02:27:21.376Z,22.22
2022-08-03T02:29:52.410Z,22.13
2022-08-03T02:32:25.869Z,22.15
2022-08-03T02:34:56.259Z,22.12
2022-08-03T02:37:27.926Z,22.07
2022-08-03T02:40:01.005Z,22.15
2022-08-03T02:42:30.067Z,22.32
2022-08-03T02:45:00.000Z,22.23
2022-08-03T02:47:53.828Z,22.16
2022-08-03T02:50:18.193Z,22.22
2022-08-03T02:52:47.219Z,22.29
2022-08-03T02:55:16.325Z,22.31
2022-08-03T02:57:46.086Z,22.23
2022-08-03T03:00:19.487Z,22.03
2022-08-03T03:02:58.303Z,22.10
2022-08-03T03:05:55.517Z,21.98
2022-08-03T03:08:18.668Z,21.90
2022-08-03T03:10:48.913Z,22.05
2022-08-03T03:13:22.301Z,22.02
2022-08-03T03:15:50.947Z,22.02
2022-08-03T03:18:23.126Z,21.89
2022-08-03T03:20:53.095Z,21.85
2022-08-03T03:23:22.669Z,22.02
2022-08-03T03:25:50.915Z,22.05
2022-08-03T03:28:18.791Z,22.10
2022-08-03T03:30:52.909Z,22.16
2022-08-03T03:33:22.740Z,22.09
2022-08-03T03:35:51.610Z,22.02
2022-08-03T03:38:19.592Z,22.10
2022-08-03T03:40:47.870Z,22.15
2022-08-03T03:43:15.728Z,22.16
2022-08-03T03:45:43.659Z,22.05
2022-08-03T03:48:12.213Z,21.87
2022-08-03T03:50:41.483Z,21.99
2022-08-03T03:53:11.100Z,21.80
2022-08-03T03:55:57.798Z,21.83
2022-08-03T03:58:26.998Z,21.75
2022-08-03T04:00:54.987Z,21.81
2022-08-03T04:03:22.818Z,21.98
2022-08-03T04:06:09.670Z,22.02
2022-08-03T04:08:55.042Z,22.07
2022-08-03T04:11:29.250Z,22.01
2022-08-03T04:14:03.445Z,22.14
2022-08-03T04:16:34.214Z,22.13
2022-08-03T04:19:04.076Z,22.07
2022-08-03T04:21:34.649Z,22.03
2022-08-03T04:24:05.328Z,22.05
2022-08-03T04:26:37.057Z,21.96
2022-08-03T04:29:05.631Z,22.09
2022-08-03T04:31:33.915Z,22.16
2022-08-03T04:34:01.954Z,22.18
2022-08-03T04:36:34.932Z,22.13
2022-08-03T04:39:06.268Z,22.22
2022-08-03T04:42:07.550Z,22.36
2022-08-03T04:44:28.377Z,22.46
2022-08-03T04:46:57.738Z,22.64
2022-08-03T04:49:25.827Z,22.85
2022-08-03T04:51:55.133Z,22.82
2022-08-03T04:54:22.993Z,22.84
2022-08-03T04:56:50.817Z,23.01
2022-08-03T04:59:18.813Z,23.01
2022-08-03T05:01:46.650Z,23.26
2022-08-03T05:04:14.606Z,23.37
2022-08-03T05:06:48.365Z,23.37
2022-08-03T05:09:45.981Z,23.51
2022-08-03T05:12:12.332Z,23.63
2022-08-03T05:14:40.307Z,23.71
2022-08-03T05:17:08.354Z,23.87
2022-08-03T05:19:36.553Z,23.99
2022-08-03T05:22:04.514Z,24.10
2022-08-03T05:24:33.675Z,24.18
2022-08-03T05:27:01.455Z,24.29
2022-08-03T05:29:29.165Z,24.35
2022-08-03T05:31:57.202Z,24.35
2022-08-03T05:34:24.988Z,24.52
2022-08-03T05:36:52.838Z,24.71
2022-08-03T05:39:20.685Z,24.46
2022-08-03T05:41:49.875Z,24.65
2022-08-03T05:44:17.670Z,24.64
2022-08-03T05:46:45.550Z,24.59
2022-08-03T05:49:13.549Z,24.74
2022-08-03T05:51:41.416Z,24.73
2022-08-03T05:54:09.316Z,24.87
2022-08-03T05:56:37.217Z,24.96
2022-08-03T05:59:28.776Z,25.01
2022-08-03T06:01:54.614Z,25.14
2022-08-03T06:04:22.601Z,25.06
2022-08-03T06:06:50.734Z,25.26
2022-08-03T06:09:18.747Z,25.46
2022-08-03T06:11:46.625Z,25.37
2022-08-03T06:14:15.919Z,25.55
2022-08-03T06:16:43.819Z,25.62
2022-08-03T06:19:11.754Z,25.68
2022-08-03T06:21:39.912Z,25.61
2022-08-03T06:24:08.479Z,25.91
2022-08-03T06:26:36.973Z,26.13
2022-08-03T06:29:04.886Z,26.14
2022-08-03T06:31:38.100Z,26.29
2022-08-03T06:34:34.303Z,26.57
2022-08-03T06:36:58.529Z,26.69
2022-08-03T06:39:30.015Z,26.68
2022-08-03T06:41:58.090Z,26.59
2022-08-03T06:44:26.162Z,26.46
2022-08-03T06:46:55.769Z,26.39
2022-08-03T06:49:23.826Z,26.64
2022-08-03T06:52:04.934Z,26.66
2022-08-03T06:54:35.741Z,26.83
2022-08-03T06:57:03.849Z,26.92
2022-08-03T07:00:07.394Z,27.22
2022-08-03T07:02:21.149Z,27.36
2022-08-03T07:04:49.130Z,27.54
2022-08-03T07:07:17.395Z,27.87
2022-08-03T07:09:57.550Z,27.81
2022-08-03T07:12:26.927Z,27.94
2022-08-03T07:14:59.814Z,28.12
2022-08-03T07:17:31.415Z,28.28
2022-08-03T07:19:59.782Z,28.19
2022-08-03T07:22:28.303Z,28.55
2022-08-03T07:24:56.486Z,28.94
2022-08-03T07:27:24.391Z,29.29
2022-08-03T07:29:52.275Z,29.46
2022-08-03T07:32:20.136Z,29.48
2022-08-03T07:34:49.486Z,29.21
2022-08-03T07:37:17.487Z,29.42
2022-08-03T07:39:45.729Z,29.84
2022-08-03T07:42:13.813Z,29.70
2022-08-03T07:44:42.127Z,29.72
2022-08-03T07:47:10.077Z,29.74
2022-08-03T07:49:51.565Z,29.73
2022-08-03T07:52:37.053Z,29.68
2022-08-03T07:55:06.364Z,30.14
2022-08-03T07:57:34.287Z,30.15
2022-08-03T08:00:02.801Z,30.18
2022-08-03T08:02:39.978Z,30.00
2022-08-03T08:05:10.918Z,30.22
2022-08-03T08:07:39.301Z,30.02
2022-08-03T08:10:08.727Z,30.49
2022-08-03T08:12:36.864Z,30.49
2022-08-03T08:15:05.862Z,30.63
2022-08-03T08:17:42.587Z,30.55
2022-08-03T08:20:13.199Z,30.66
2022-08-03T08:22:41.060Z,30.49
2022-08-03T08:25:09.886Z,30.29
2022-08-03T08:28:31.637Z,30.90
2022-08-03T08:30:31.753Z,30.77
2022-08-03T08:32:59.969Z,30.90
2022-08-03T08:35:29.393Z,30.72
2022-08-03T08:37:57.268Z,30.69
2022-08-03T08:40:28.921Z,30.95
2022-08-03T08:42:58.822Z,31.36
2022-08-03T08:45:27.246Z,31.55
2022-08-03T08:48:00.343Z,31.27
2022-08-03T08:50:31.390Z,31.02
2022-08-03T08:53:02.076Z,30.91
2022-08-03T08:55:30.372Z,31.39
2022-08-03T08:58:20.818Z,31.91
2022-08-03T09:00:49.404Z,31.66
2022-08-03T09:03:29.086Z,31.82
2022-08-03T09:06:00.980Z,31.89
2022-08-03T09:08:29.900Z,31.90
2022-08-03T09:10:57.790Z,31.78
2022-08-03T09:13:25.820Z,31.92
2022-08-03T09:16:12.258Z,31.89
2022-08-03T09:18:40.577Z,32.02
2022-08-03T09:21:33.886Z,31.65
2022-08-03T09:24:05.127Z,32.03
2022-08-03T09:26:35.382Z,32.65
2022-08-03T09:29:09.716Z,32.02
2022-08-03T09:31:43.683Z,31.63
2022-08-03T09:34:13.429Z,31.93
2022-08-03T09:36:44.595Z,32.40
2022-08-03T09:39:14.052Z,32.50
2022-08-03T09:41:42.812Z,32.50
2022-08-03T09:44:24.553Z,32.53
2022-08-03T09:46:55.146Z,32.39
2022-08-03T09:49:23.698Z,32.40
2022-08-03T09:52:32.566Z,32.47
2022-08-03T09:54:41.714Z,32.38
2022-08-03T09:57:09.613Z,32.55
2022-08-03T09:59:41.088Z,32.63
2022-08-03T10:02:21.930Z,32.87
2022-08-03T10:04:50.998Z,33.02
2022-08-03T10:07:21.089Z,33.22
2022-08-03T10:09:56.934Z,33.26
2022-08-03T10:12:25.325Z,33.09
2022-08-03T10:14:53.981Z,32.81
2022-08-03T10:17:22.524Z,33.05
2022-08-03T10:19:50.887Z,32.85
2022-08-03T10:22:21.199Z,33.24
2022-08-03T10:24:54.297Z,33.36
2022-08-03T10:27:24.592Z,33.53
2022-08-03T10:29:54.973Z,33.80
2022-08-03T10:32:30.023Z,34.12
2022-08-03T10:35:19.772Z,33.74
2022-08-03T10:37:58.677Z,33.72
2022-08-03T10:43:20.817Z,33.90
2022-08-03T10:45:48.957Z,34.05
2022-08-03T10:48:18.027Z,34.72
2022-08-03T10:50:46.617Z,34.35
2022-08-03T10:53:18.648Z,34.73
2022-08-03T10:56:05.467Z,34.83
2022-08-03T10:58:56.975Z,34.46
2022-08-03T11:01:59.285Z,35.09
2022-08-03T11:04:29.708Z,35.45
2022-08-03T11:07:21.052Z,34.62
2022-08-03T11:09:51.435Z,35.41
2022-08-03T11:12:27.825Z,35.92
2022-08-03T11:15:01.926Z,35.24
2022-08-03T11:17:29.931Z,34.76
2022-08-03T11:19:58.629Z,34.94
2022-08-03T11:22:28.994Z,36.09
2022-08-03T11:25:02.228Z,36.77
2022-08-03T11:27:32.819Z,37.19
2022-08-03T11:30:07.084Z,37.35
2022-08-03T11:32:56.164Z,36.25
2022-08-03T11:35:25.241Z,36.08
2022-08-03T11:38:10.387Z,37.42
2022-08-03T11:40:42.591Z,37.34
2022-08-03T11:43:11.662Z,37.74
2022-08-03T11:45:39.636Z,38.46
2022-08-03T11:48:16.570Z,38.67
2022-08-03T11:50:45.743Z,37.26
2022-08-03T11:53:18.307Z,37.10
2022-08-03T11:55:49.786Z,37.98
2022-08-03T11:59:17.313Z,38.77
2022-08-03T12:01:12.336Z,39.47
2022-08-03T12:03:40.324Z,40.05
2022-08-03T12:06:11.127Z,40.25
2022-08-03T12:08:39.343Z,39.12
2022-08-03T12:11:10.557Z,37.96
2022-08-03T12:14:45.593Z,37.62
2022-08-03T12:16:31.339Z,37.32
2022-08-03T12:19:00.380Z,38.02
2022-08-03T12:21:28.831Z,39.25
2022-08-03T12:24:01.152Z,40.08
2022-08-03T12:26:31.029Z,39.66
2022-08-03T12:28:59.014Z,39.28
2022-08-03T12:31:26.907Z,39.29
2022-08-03T12:33:59.879Z,40.04
2022-08-03T12:36:29.504Z,41.11
2022-08-03T12:38:59.108Z,40.80
2022-08-03T12:41:34.160Z,40.40
2022-08-03T12:44:03.313Z,40.42
2022-08-03T12:46:32.990Z,40.35
2022-08-03T12:49:02.476Z,40.28
2022-08-03T12:51:32.229Z,40.70
2022-08-03T12:54:00.741Z,42.10
2022-08-03T12:56:28.701Z,41.97
2022-08-03T12:58:57.988Z,40.88
2022-08-03T13:01:27.900Z,40.67
2022-08-03T13:03:55.903Z,41.10
2022-08-03T13:06:25.431Z,40.16
2022-08-03T13:09:04.636Z,39.97
2022-08-03T13:11:58.158Z,40.50
2022-08-03T13:14:23.720Z,41.36
2022-08-03T13:16:51.865Z,41.52
2022-08-03T13:19:19.797Z,42.40
2022-08-03T13:21:53.751Z,40.77
2022-08-03T13:24:32.929Z,41.55
2022-08-03T13:27:00.932Z,41.48
2022-08-03T13:29:50.161Z,40.26
2022-08-03T13:32:18.183Z,40.91
2022-08-03T13:34:46.090Z,42.46
2022-08-03T13:37:14.119Z,41.60
2022-08-03T13:39:58.222Z,41.08
2022-08-03T13:42:30.420Z,42.37
2022-08-03T13:45:00.403Z,42.78
2022-08-03T13:47:28.510Z,42.00
2022-08-03T13:50:01.646Z,41.51
2022-08-03T13:52:31.655Z,43.13
2022-08-03T13:54:59.874Z,42.37
2022-08-03T13:58:02.188Z,43.20
2022-08-03T14:00:27.077Z,43.02
2022-08-03T14:03:03.807Z,40.84
2022-08-03T14:05:35.658Z,42.67
2022-08-03T14:08:05.697Z,43.01
2022-08-03T14:10:35.228Z,41.48
2022-08-03T14:13:03.230Z,41.98
2022-08-03T14:15:37.571Z,41.15
2022-08-03T14:18:06.042Z,42.34
2022-08-03T14:20:37.228Z,43.17
2022-08-03T14:23:07.605Z,42.57
2022-08-03T14:25:43.535Z,44.36
2022-08-03T14:28:18.987Z,44.20
2022-08-03T14:30:48.663Z,43.28
2022-08-03T14:33:16.765Z,45.07
2022-08-03T14:35:44.737Z,43.25
2022-08-03T14:38:12.712Z,44.66
2022-08-03T14:40:40.693Z,44.09
2022-08-03T14:43:08.607Z,43.55
2022-08-03T14:45:36.490Z,43.02
2022-08-03T14:50:12.635Z,42.27
2022-08-03T14:50:55.193Z,43.79
2022-08-03T14:53:23.655Z,42.72
2022-08-03T14:55:52.877Z,43.61
2022-08-03T14:58:22.021Z,41.95
2022-08-03T15:00:51.005Z,41.34
2022-08-03T15:03:23.613Z,40.34
2022-08-03T15:05:52.902Z,39.94
2022-08-03T15:08:21.072Z,38.83
2022-08-03T15:10:49.409Z,39.59
2022-08-03T15:13:17.860Z,40.07
2022-08-03T15:15:45.820Z,41.25
2022-08-03T15:18:13.799Z,43.18
2022-08-03T15:20:45.863Z,41.72
2022-08-03T15:23:15.620Z,41.38
2022-08-03T15:26:06.471Z,42.31
2022-08-03T15:28:32.325Z,40.80
2022-08-03T15:31:00.274Z,39.98
2022-08-03T15:33:28.198Z,39.21
2022-08-03T15:35:57.544Z,38.39
2022-08-03T15:38:25.972Z,38.41
2022-08-03T15:40:55.389Z,38.13
2022-08-03T15:43:23.319Z,39.04
2022-08-03T15:46:12.766Z,39.62
2022-08-03T15:48:39.302Z,42.39
2022-08-03T15:51:09.189Z,43.85
2022-08-03T15:53:37.107Z,44.06
2022-08-03T15:56:11.327Z,44.28
2022-08-03T15:59:09.157Z,44.22
2022-08-03T16:01:29.648Z,43.05
2022-08-03T16:03:57.569Z,42.75
2022-08-03T16:06:34.802Z,44.05
2022-08-03T16:09:03.677Z,44.33
2022-08-03T16:11:31.612Z,44.61
2022-08-03T16:14:13.278Z,42.76
2022-08-03T16:16:47.756Z,41.99
2022-08-03T16:19:15.815Z,42.09
2022-08-03T16:21:48.675Z,42.57
2022-08-03T16:24:24.237Z,42.11
2022-08-03T16:26:56.052Z,42.90
2022-08-03T16:29:24.210Z,42.68
2022-08-03T16:31:52.702Z,43.38
2022-08-03T16:34:21.030Z,45.08
2022-08-03T16:36:50.296Z,44.98
2022-08-03T16:39:18.265Z,45.90
2022-08-03T16:41:53.835Z,46.37
2022-08-03T16:44:30.837Z,46.81
2022-08-03T16:46:58.921Z,44.64
2022-08-03T16:49:53.106Z,43.52
2022-08-03T16:52:16.873Z,44.48
2022-08-03T16:54:50.767Z,44.94
2022-08-03T16:57:55.963Z,43.77
2022-08-03T17:00:11.830Z,42.87
2022-08-03T17:02:48.217Z,42.82
2022-08-03T17:05:16.453Z,43.09
2022-08-03T17:07:50.753Z,43.86
2022-08-03T17:10:27.264Z,42.50
2022-08-03T17:12:55.645Z,41.98
2022-08-03T17:15:38.357Z,41.14
2022-08-03T17:18:13.237Z,42.64
2022-08-03T17:20:42.797Z,42.97
2022-08-03T17:23:34.405Z,42.34
2022-08-03T17:26:08.874Z,41.57
2022-08-03T17:28:49.993Z,41.50
2022-08-03T17:31:31.654Z,41.45
2022-08-03T17:34:01.486Z,42.01
2022-08-03T17:36:53.995Z,42.77
2022-08-03T17:39:35.786Z,41.31
2022-08-03T17:42:29.630Z,40.69
2022-08-03T17:44:57.828Z,41.72
2022-08-03T17:47:29.145Z,42.07
2022-08-03T17:50:23.958Z,41.23
2022-08-03T17:52:55.473Z,40.98
2022-08-03T17:55:55.281Z,41.92
2022-08-03T17:58:16.443Z,42.31
2022-08-03T18:01:02.175Z,41.46
2022-08-03T18:03:56.999Z,40.01
2022-08-03T18:06:29.714Z,39.79
2022-08-03T18:08:59.952Z,38.19
2022-08-03T18:11:35.742Z,38.85
2022-08-03T18:14:16.697Z,39.47
2022-08-03T18:16:47.482Z,39.02
2022-08-03T18:19:15.550Z,37.77
2022-08-03T18:22:03.498Z,37.11
2022-08-03T18:24:32.369Z,36.58
2022-08-03T18:27:02.491Z,36.13
2022-08-03T18:29:31.943Z,35.64
2022-08-03T18:34:53.454Z,34.96
2022-08-03T18:37:25.616Z,34.51
2022-08-03T18:39:57.886Z,34.19
2022-08-03T18:42:27.618Z,33.76
2022-08-03T18:44:56.396Z,33.63
2022-08-03T18:47:50.878Z,33.62
2022-08-03T18:50:27.208Z,33.64
2022-08-03T18:53:05.407Z,33.54
2022-08-03T18:56:01.698Z,33.39
2022-08-03T18:58:38.709Z,33.34
2022-08-03T19:01:37.949Z,33.06
2022-08-03T19:04:06.480Z,33.07
2022-08-03T19:06:36.284Z,33.12
2022-08-03T19:09:06.574Z,32.81
2022-08-03T19:12:12.394Z,32.27
2022-08-03T19:14:31.363Z,32.03
2022-08-03T19:17:05.938Z,31.90
2022-08-03T19:19:44.319Z,31.85
2022-08-03T19:22:16.159Z,31.39
2022-08-03T19:24:46.564Z,31.32
2022-08-03T19:27:16.022Z,30.94
2022-08-03T19:29:58.648Z,30.76
2022-08-03T19:32:29.961Z,30.50
2022-08-03T19:34:59.608Z,30.29
2022-08-03T19:37:38.526Z,30.19
2022-08-03T19:43:00.836Z,30.30
2022-08-03T19:46:04.881Z,30.35
2022-08-03T19:48:27.792Z,30.17
2022-08-03T19:50:56.572Z,29.95
2022-08-03T19:56:16.981Z,29.80
2022-08-03T19:58:44.826Z,29.53
2022-08-03T20:01:22.562Z,29.49
2022-08-03T20:03:52.276Z,29.50
2022-08-03T20:06:23.258Z,29.25
2022-08-03T20:08:52.223Z,29.05
2022-08-03T20:11:20.175Z,28.99
2022-08-03T20:13:56.488Z,28.78
2022-08-03T20:16:26.131Z,28.65
2022-08-03T20:18:54.115Z,28.56
2022-08-03T20:21:25.629Z,28.62
2022-08-03T20:24:01.925Z,28.43
2022-08-03T20:26:33.001Z,28.34
2022-08-03T20:29:06.082Z,28.44
2022-08-03T20:31:39.407Z,28.28
2022-08-03T20:34:09.142Z,28.36
2022-08-03T20:36:37.253Z,28.24
2022-08-03T20:39:07.446Z,27.96
2022-08-03T20:41:36.094Z,27.83
2022-08-03T20:44:04.491Z,27.78
2022-08-03T20:46:44.074Z,27.87
2022-08-03T20:49:23.436Z,27.83
2022-08-03T20:51:53.606Z,27.77
2022-08-03T20:54:30.737Z,27.51
2022-08-03T20:57:03.441Z,27.37
2022-08-03T20:59:46.814Z,27.31
2022-08-03T21:02:19.774Z,27.43
2022-08-03T21:04:58.817Z,27.36
2022-08-03T21:08:04.508Z,27.21
2022-08-03T21:10:21.170Z,27.09
2022-08-03T21:12:58.266Z,35.43
2022-08-03T21:13:02.694Z,30.19
2022-08-03T21:13:03.180Z,29.85
2022-08-03T21:13:15.090Z,27.28
2022-08-03T21:16:06.469Z,27.27
2022-08-03T21:18:38.720Z,27.11
2022-08-03T21:21:09.147Z,26.85
2022-08-03T21:23:48.326Z,26.89
2022-08-03T21:26:18.520Z,26.73
2022-08-03T21:28:47.305Z,26.62
2022-08-03T21:31:22.312Z,26.61
2022-08-03T21:33:55.006Z,26.77
2022-08-03T21:36:25.213Z,26.82
2022-08-03T21:38:56.689Z,26.69
2022-08-03T21:41:25.195Z,26.47
2022-08-03T21:43:53.071Z,26.30
2022-08-03T21:46:21.218Z,26.31
2022-08-03T21:48:55.346Z,26.32
2022-08-03T21:51:26.205Z,26.26
2022-08-03T21:54:02.746Z,26.24
2022-08-03T21:56:37.081Z,26.37
2022-08-03T21:59:07.710Z,26.24
2022-08-03T22:01:37.021Z,26.21
2022-08-03T22:04:07.196Z,26.35
2022-08-03T22:06:39.915Z,26.44
2022-08-03T22:09:08.469Z,26.48
2022-08-03T22:11:37.809Z,26.16
2022-08-03T22:14:06.028Z,26.10
2022-08-03T22:16:33.903Z,26.25
2022-08-03T22:19:01.861Z,26.31
2022-08-03T22:21:36.225Z,26.05
2022-08-03T22:24:07.508Z,25.85
2022-08-03T22:26:36.974Z,25.74
2022-08-03T22:29:08.469Z,25.77
2022-08-03T22:31:58.811Z,25.92
2022-08-03T22:34:27.332Z,26.03
2022-08-03T22:36:59.737Z,26.03
2022-08-03T22:39:30.321Z,25.96
2022-08-03T22:41:59.121Z,25.71
2022-08-03T22:44:27.339Z,25.66
2022-08-03T22:46:55.415Z,25.46
2022-08-03T22:49:23.564Z,25.47
2022-08-03T22:51:52.082Z,25.38
2022-08-03T22:54:20.255Z,25.55
2022-08-03T22:56:50.787Z,25.66
2022-08-03T22:59:40.124Z,25.76
2022-08-03T23:02:20.211Z,25.49
2022-08-03T23:04:52.903Z,25.35
2022-08-03T23:07:23.394Z,25.29
2022-08-03T23:09:51.641Z,25.18
2022-08-03T23:12:21.202Z,25.16
2022-08-03T23:14:53.713Z,25.34
2022-08-03T23:17:23.249Z,25.42
2022-08-03T23:19:53.680Z,25.17
2022-08-03T23:22:29.895Z,25.01
2022-08-03T23:25:01.353Z,24.99
2022-08-03T23:27:31.824Z,25.22
2022-08-03T23:30:00.518Z,25.32
2022-08-03T23:32:30.184Z,25.30
2022-08-03T23:35:17.394Z,25.12
2022-08-03T23:38:04.675Z,25.00
2022-08-03T23:40:34.762Z,25.16
2022-08-03T23:43:04.573Z,25.14
2022-08-03T23:45:35.586Z,25.28
2022-08-03T23:48:03.508Z,25.11
2022-08-03T23:50:45.515Z,24.87
2022-08-03T23:53:18.957Z,24.71
2022-08-03T23:55:57.454Z,24.66
2022-08-03T23:58:39.448Z,24.64
